ADDS METAR Data INFO
IDs: Format: Raw Decoded Include TAF

Data at: 0330 UTC 16 Dec 2017

KPVW 160315Z AUTO 22008KT 10SM CLR 03/M07 A3008 RMK AO2 T00251067
KPVW 160255Z AUTO 23008KT 10SM CLR 03/M07 A3008 RMK AO2 T00311067
KPVW 160235Z AUTO 22009KT 10SM CLR 03/M07 A3009 RMK AO2 T00341066
KPVW 160215Z AUTO 22008KT 10SM CLR 03/M07 A3009 RMK AO2 T00301070
KPVW 160155Z AUTO 22010KT 10SM CLR 03/M07 A3009 RMK AO2 T00301073
KPVW 160135Z AUTO 22008KT 10SM CLR 03/M07 A3009 RMK AO2 T00311071
KPVW 160115Z AUTO 22007KT 10SM CLR 04/M07 A3009 RMK AO2 T00351074
KPVW 160055Z AUTO 23007KT 10SM CLR 04/M07 A3010 RMK AO2 T00361071
KPVW 160035Z AUTO 22006KT 10SM CLR 04/M07 A3010 RMK AO2 T00441071
KPVW 160015Z AUTO 22006KT 10SM CLR 05/M07 A3010 RMK AO2 T00511070
KPVW 152355Z AUTO 23007KT 10SM CLR 07/M06 A3010 RMK AO2 T00661065 10116 20066
KPVW 152335Z AUTO 23007KT 10SM CLR 08/M06 A3010 RMK AO2 T00811062 TSNO
KPVW 152315Z AUTO 23010KT 10SM CLR 10/M06 A3010 RMK AO2 T00951058
KPVW 152255Z AUTO 24012KT 10SM CLR 11/M06 A3011 RMK AO2 T01061060
KPVW 152235Z AUTO 24016KT 10SM CLR 11/M06 A3011 RMK AO2 T01111056
KPVW 152215Z AUTO 25015KT 10SM CLR 12/M06 A3011 RMK AO2 T01151057
KPVW 152155Z AUTO 25014KT 10SM CLR 12/M05 A3012 RMK AO2 T01151052
KPVW 152135Z AUTO 24016G19KT 10SM CLR 12/M05 A3012 RMK AO2 T01161051
KPVW 152115Z AUTO 25015G20KT 10SM CLR 12/M05 A3013 RMK AO2 T01151052
KPVW 152055Z AUTO 25017G22KT 10SM CLR 11/M05 A3013 RMK AO2 T01091050
KPVW 152035Z AUTO 25014G20KT 10SM CLR 11/M05 A3014 RMK AO2 T01091048
KPVW 152015Z AUTO 26017G22KT 10SM CLR 11/M05 A3015 RMK AO2 T01061047
KPVW 151955Z AUTO 26013G22KT 10SM CLR 10/M05 A3016 RMK AO2 T01021047
KPVW 151935Z AUTO 25014G20KT 10SM CLR 10/M05 A3017 RMK AO2 T00991047
KPVW 151915Z AUTO 27016G22KT 10SM CLR 10/M04 A3019 RMK AO2 T00961042
KPVW 151855Z AUTO 26018G22KT 10SM CLR 09/M04 A3021 RMK AO2 T00911041
KPVW 151835Z AUTO 26014G20KT 10SM CLR 09/M04 A3022 RMK AO2 T00861040
KPVW 151815Z AUTO 25015G20KT 10SM CLR 08/M04 A3023 RMK AO2 T00821042
KPVW 151755Z AUTO 27013KT 10SM CLR 07/M05 A3025 RMK AO2 T00701051 10070 21075
KPVW 151735Z AUTO 26013KT 10SM CLR 07/M04 A3026 RMK AO2 T00651045
KPVW 151715Z AUTO 25012KT 10SM CLR 06/M04 A3027 RMK AO2 T00551044
KPVW 151655Z AUTO 26010KT 10SM CLR 05/M05 A3028 RMK AO2 T00511047
KPVW 151635Z AUTO 26010KT 10SM CLR 04/M05 A3028 RMK AO2 T00431046
KPVW 151615Z AUTO 27006KT 10SM CLR 03/M04 A3029 RMK AO2 T00301041
KPVW 151555Z AUTO 28006KT 10SM CLR 01/M04 A3030 RMK AO2 T00141036
KPVW 151535Z AUTO 27005KT 10SM CLR 00/M04 A3030 RMK AO2 T00001036
KPVW 151515Z AUTO 25004KT 10SM CLR M01/M04 A3030 RMK AO2 T10141042
KPVW 151455Z AUTO 29003KT 10SM CLR M03/M05 A3029 RMK AO2 T10291050
KPVW 151435Z AUTO 29005KT 10SM CLR M05/M06 A3029 RMK AO2 T10461063
KPVW 151415Z AUTO 30005KT 10SM CLR M07/M08 A3029 RMK AO2 T10671083
KPVW 151355Z AUTO 27005KT 10SM CLR M07/M09 A3029 RMK AO2 T10711090 TSNO
KPVW 151335Z AUTO 26006KT 10SM CLR M07/M09 A3029 RMK AO2 T10701087
KPVW 151315Z AUTO 27005KT 10SM CLR M07/M09 A3029 RMK AO2 T10701087
KPVW 151255Z AUTO 27005KT 10SM CLR M07/M09 A3030 RMK AO2 T10701089
KPVW 151235Z AUTO 26003KT 10SM CLR M06/M08 A3030 RMK AO2 T10591076
KPVW 151215Z AUTO 30005KT 10SM CLR M05/M07 A3028 RMK AO2 T10531070
KPVW 151155Z AUTO 33005KT 10SM CLR M05/M07 A3028 RMK AO2 T10531071 10024 21053
KPVW 151135Z AUTO 32004KT 10SM CLR M04/M06 A3028 RMK AO2 T10381059
KPVW 151115Z AUTO 34003KT 10SM CLR M03/M05 A3028 RMK AO2 T10271052
KPVW 151055Z AUTO 34005KT 10SM CLR M03/M06 A3028 RMK AO2 T10341059
KPVW 151035Z AUTO 34005KT 10SM CLR M04/M06 A3028 RMK AO2 T10411064
KPVW 151015Z AUTO 33004KT 10SM CLR M04/M06 A3028 RMK AO2 T10431065
KPVW 150955Z AUTO 32005KT 10SM CLR M05/M07 A3029 RMK AO2 T10461067
KPVW 150935Z AUTO 32006KT 10SM CLR M05/M07 A3029 RMK AO2 T10461070
KPVW 150915Z AUTO 31003KT 10SM CLR M04/M07 A3029 RMK AO2 T10391069
KPVW 150855Z AUTO 34006KT 10SM CLR M03/M06 A3029 RMK AO2 T10311057
KPVW 150835Z AUTO 34005KT 10SM CLR M03/M06 A3029 RMK AO2 T10321063
KPVW 150815Z AUTO 33004KT 10SM CLR M03/M06 A3029 RMK AO2 T10261059
KPVW 150755Z AUTO 32006KT 10SM CLR M02/M06 A3029 RMK AO2 T10231056
KPVW 150735Z AUTO 31007KT 10SM CLR M02/M06 A3029 RMK AO2 T10251060
KPVW 150715Z AUTO 33007KT 10SM CLR M02/M06 A3029 RMK AO2 T10171057
KPVW 150655Z AUTO 34006KT 10SM CLR 01/M04 A3030 RMK AO2 T00071045
KPVW 150635Z AUTO 34007KT 10SM CLR 02/M04 A3030 RMK AO2 T00181042
KPVW 150615Z AUTO 35008KT 10SM CLR 02/M04 A3029 RMK AO2 T00191043
KPVW 150555Z AUTO 35008KT 10SM CLR 03/M04 A3029 RMK AO2 T00251042 10049 20010 400881028
KPVW 150535Z AUTO 34007KT 10SM CLR 03/M04 A3029 RMK AO2 T00321040
KPVW 150515Z AUTO 34007KT 10SM SCT110 03/M03 A3029 RMK AO2 T00331035
KPVW 150455Z AUTO 35006KT 10SM OVC110 04/M03 A3028 RMK AO2 T00351032
KPVW 150430Z AUTO 35005KT 10SM BKN090 OVC120 04/M03 A3028 RMK AO2 T00401031
KPVW 150415Z AUTO 35007KT 10SM SCT075 OVC080 04/M03 A3027 RMK AO2 T00421028
KPVW 150355Z AUTO 01009KT 10SM OVC075 04/M03 A3026 RMK AO2 T00441028 TSNO
KPVW 150335Z AUTO 02010KT 10SM OVC075 04/M03 A3026 RMK AO2 T00441028
KPVW 150315Z AUTO 01013G21KT 10SM BKN075 BKN085 BKN120 04/M03 A3025 RMK AO2 T00371032
KPVW 150255Z AUTO 02015G19KT 10SM SCT095 SCT120 04/M03 A3024 RMK AO2 T00371035
KPVW 150235Z AUTO 02010KT 10SM CLR 03/M04 A3023 RMK AO2 T00291037
KPVW 150215Z AUTO 01010KT 10SM CLR 03/M03 A3022 RMK AO2 T00271035
KPVW 150155Z AUTO 01010KT 10SM CLR 02/M03 A3022 RMK AO2 T00211030
KPVW 150135Z AUTO 01007KT 10SM CLR 01/M04 A3021 RMK AO2 T00101036
KPVW 150115Z AUTO 01007KT 10SM CLR 02/M03 A3020 RMK AO2 T00201032
KPVW 150055Z AUTO 01007KT 10SM CLR 03/M03 A3020 RMK AO2 T00301029
KPVW 150035Z AUTO 01008KT 10SM CLR 04/M03 A3019 RMK AO2 T00381027
KPVW 150015Z AUTO 01010KT 10SM CLR 04/M03 A3018 RMK AO2 T00421027
KPVW 142355Z AUTO 01009KT 10SM CLR 05/M03 A3018 RMK AO2 T00511026 10088 20051
KPVW 142335Z AUTO 01011KT 10SM CLR 06/M02 A3017 RMK AO2 T00591025
KPVW 142315Z AUTO 01011G16KT 10SM CLR 07/M03 A3016 RMK AO2 T00671028
KPVW 142255Z AUTO 01014KT 10SM CLR 08/M03 A3015 RMK AO2 T00751035
KPVW 142235Z AUTO 01013KT 10SM CLR 08/M04 A3014 RMK AO2 T00791042
KPVW 142215Z AUTO 03010KT 10SM CLR 08/M05 A3014 RMK AO2 T00801051
KPVW 142155Z AUTO 03009KT 10SM CLR 08/M06 A3013 RMK AO2 T00811064
KPVW 142135Z AUTO 03012KT 10SM CLR 08/M07 A3013 RMK AO2 T00841066
KPVW 142115Z AUTO 02009G17KT 10SM CLR 09/M07 A3013 RMK AO2 T00851070
KPVW 142055Z AUTO 01010G18KT 10SM CLR 09/M07 A3013 RMK AO2 T00851072
KPVW 142030Z AUTO 01011KT 10SM CLR 09/M07 A3014 RMK AO2 T00851073
KPVW 142015Z AUTO 01012G18KT 10SM CLR 09/M07 A3014 RMK AO2 T00871070
KPVW 141955Z AUTO 02012G16KT 10SM CLR 09/M07 A3014 RMK AO2 T00871072
KPVW 141935Z AUTO 03012G18KT 10SM CLR 08/M07 A3015 RMK AO2 T00841072
KPVW 141915Z AUTO 02010G17KT 10SM CLR 08/M06 A3015 RMK AO2 T00811065
KPVW 141855Z AUTO 01013G16KT 360V060 10SM CLR 08/M06 A3015 RMK AO2 T00781060
KPVW 141835Z AUTO 03011G21KT 10SM CLR 08/M06 A3017 RMK AO2 T00751059
KPVW 141815Z AUTO 04013G21KT 10SM CLR 08/M06 A3017 RMK AO2 T00761058
KPVW 141755Z AUTO 04018KT 10SM CLR 08/M06 A3017 RMK AO2 T00751056 10075 21012
KPVW 141735Z AUTO 04014G19KT 10SM CLR 07/M06 A3018 RMK AO2 T00731057
KPVW 141715Z AUTO 05015G20KT 10SM CLR 07/M06 A3019 RMK AO2 T00681056
KPVW 141655Z AUTO 06013G21KT 10SM CLR 07/M06 A3018 RMK AO2 T00671056
KPVW 141635Z AUTO 05012KT 10SM CLR 07/M06 A3018 RMK AO2 T00661056
KPVW 141615Z AUTO 04012G16KT 10SM CLR 06/M06 A3018 RMK AO2 T00571059
KPVW 141555Z AUTO 04012KT 10SM CLR 04/M07 A3016 RMK AO2 T00381067
KPVW 141535Z AUTO 05010KT 10SM CLR 03/M07 A3015 RMK AO2 T00301071